Time;durP1;ratioP1;P1;durP2;ratioP2;P2;SDS_P1;SDS_P2;PMS_P1;PMS_P2;Temp;Humidity;BMP_temperature;BMP_pressure;BME280_temperature;BME280_humidity;BME280_pressure;Samples;Min_cycle;Max_cycle;Signal;HPM_P1;HPM_P2
2023/03/29 00:00:26;;;;;;;5.10;4.80;;;3.80;88.00;;;;;;5031429;28;20116;-76
2023/03/29 00:02:55;;;;;;;5.50;5.10;;;3.70;90.00;;;;;;5047782;28;20021;-76
2023/03/29 00:05:21;;;;;;;5.60;5.22;;;3.70;90.00;;;;;;5047416;28;20048;-75
2023/03/29 00:07:52;;;;;;;5.53;5.03;;;3.70;90.10;;;;;;5053598;28;20040;-76
2023/03/29 00:10:20;;;;;;;5.68;5.18;;;3.70;91.40;;;;;;5046097;28;20602;-76
2023/03/29 00:12:45;;;;;;;5.57;5.20;;;3.70;91.70;;;;;;5052416;28;20123;-76
2023/03/29 00:15:11;;;;;;;5.80;5.30;;;3.60;91.80;;;;;;5052327;28;20113;-77
2023/03/29 00:17:37;;;;;;;5.63;5.22;;;3.50;92.00;;;;;;5051492;28;20821;-76
2023/03/29 00:20:07;;;;;;;4.88;4.57;;;3.50;91.50;;;;;;5057621;28;20028;-76
2023/03/29 00:22:33;;;;;;;5.32;4.93;;;3.50;91.90;;;;;;5051345;28;20390;-77
2023/03/29 00:24:59;;;;;;;5.38;4.97;;;3.60;92.00;;;;;;5053477;28;20043;-76
2023/03/29 00:27:24;;;;;;;7.57;5.28;;;3.70;92.80;;;;;;5050463;28;20519;-76
2023/03/29 00:29:50;;;;;;;4.80;4.50;;;3.80;92.90;;;;;;5050895;28;20093;-77
2023/03/29 00:32:15;;;;;;;5.03;4.63;;;3.80;92.80;;;;;;5051720;28;20034;-76
2023/03/29 00:34:41;;;;;;;4.70;4.40;;;3.80;92.50;;;;;;5057545;28;20040;-79
2023/03/29 00:37:08;;;;;;;5.10;4.70;;;3.80;92.80;;;;;;5055844;28;20042;-78
2023/03/29 00:39:35;;;;;;;5.10;4.70;;;3.90;93.20;;;;;;5051440;28;20478;-79
2023/03/29 00:42:01;;;;;;;5.20;4.90;;;3.80;92.90;;;;;;5058534;28;20494;-77
2023/03/29 00:44:59;;;;;;;4.78;4.47;;;3.80;93.00;;;;;;5050475;28;20036;-76
2023/03/29 00:47:40;;;;;;;4.85;4.53;;;3.70;92.80;;;;;;5054332;28;20120;-75
2023/03/29 00:50:17;;;;;;;5.38;4.88;;;3.70;92.90;;;;;;5053176;28;20149;-77
2023/03/29 00:53:18;;;;;;;5.03;4.72;;;3.80;93.00;;;;;;5054736;28;20044;-82
2023/03/29 00:56:03;;;;;;;4.97;4.68;;;3.80;93.10;;;;;;5054734;28;20116;-76
2023/03/29 00:58:58;;;;;;;5.05;4.72;;;3.90;93.30;;;;;;5054357;28;20029;-76
2023/03/29 01:01:41;;;;;;;7.38;4.78;;;3.90;93.10;;;;;;5051970;28;20036;-76
2023/03/29 01:04:17;;;;;;;4.70;4.38;;;3.90;93.20;;;;;;5045008;28;20059;-76
2023/03/29 01:06:48;;;;;;;5.22;4.90;;;3.90;93.00;;;;;;5055633;28;20041;-76
2023/03/29 01:09:17;;;;;;;4.47;4.18;;;3.90;92.70;;;;;;5053112;28;20040;-76
2023/03/29 01:11:52;;;;;;;5.20;4.80;;;3.80;92.30;;;;;;5052846;28;20705;-76
2023/03/29 01:14:21;;;;;;;5.00;4.68;;;3.80;92.20;;;;;;5051877;28;20027;-75
2023/03/29 01:16:47;;;;;;;4.78;4.50;;;3.90;92.50;;;;;;5054396;28;20091;-76
2023/03/29 01:19:17;;;;;;;4.95;4.55;;;3.90;92.60;;;;;;5034123;28;20426;-76
2023/03/29 01:21:50;;;;;;;5.20;4.80;;;3.90;92.80;;;;;;5052120;28;20029;-76
2023/03/29 01:24:29;;;;;;;4.85;4.53;;;4.00;92.80;;;;;;5054063;28;20124;-76
2023/03/29 01:27:33;;;;;;;4.80;4.50;;;3.90;91.70;;;;;;5055242;28;20100;-77
2023/03/29 01:30:06;;;;;;;5.18;4.68;;;4.00;91.80;;;;;;5046596;28;20074;-76
2023/03/29 01:32:43;;;;;;;5.63;5.13;;;3.90;92.20;;;;;;5051541;28;20112;-76
2023/03/29 01:35:17;;;;;;;5.40;5.00;;;3.90;92.20;;;;;;5054885;28;20051;-76
2023/03/29 01:38:07;;;;;;;20.33;19.40;;;3.90;92.10;;;;;;5056793;28;20091;-77
2023/03/29 01:40:33;;;;;;;4.65;4.35;;;3.80;91.40;;;;;;5055512;28;20460;-77
2023/03/29 01:43:24;;;;;;;4.90;4.50;;;3.80;91.30;;;;;;5037170;28;20094;-76
2023/03/29 01:46:07;;;;;;;5.07;4.63;;;3.90;91.60;;;;;;5059800;28;20048;-77
2023/03/29 01:48:50;;;;;;;5.30;4.80;;;3.90;92.50;;;;;;5054481;28;20083;-76
2023/03/29 01:51:34;;;;;;;5.05;4.68;;;3.90;92.40;;;;;;5062052;28;20025;-76
2023/03/29 01:54:06;;;;;;;5.25;4.80;;;3.90;92.80;;;;;;5051820;28;20032;-76
2023/03/29 01:56:36;;;;;;;13.23;12.52;;;3.90;92.70;;;;;;5058570;28;20052;-76
2023/03/29 01:59:10;;;;;;;6.20;4.70;;;3.90;91.90;;;;;;5049536;28;20032;-76
2023/03/29 02:01:42;;;;;;;4.78;4.53;;;3.90;91.30;;;;;;5054893;28;20056;-75
2023/03/29 02:04:12;;;;;;;4.93;4.50;;;4.00;91.40;;;;;;5053333;28;20032;-77
2023/03/29 02:06:39;;;;;;;5.32;4.82;;;4.00;91.30;;;;;;5053950;28;20138;-76
2023/03/29 02:09:06;;;;;;;4.85;4.55;;;3.90;91.60;;;;;;5065375;28;20140;-77
2023/03/29 02:11:33;;;;;;;6.82;6.43;;;4.00;91.70;;;;;;5056526;28;20066;-76
2023/03/29 02:13:59;;;;;;;4.80;4.50;;;4.00;91.50;;;;;;5056463;28;20032;-76
2023/03/29 02:16:26;;;;;;;14.75;14.00;;;4.10;89.20;;;;;;5051442;28;20017;-76
2023/03/29 02:18:55;;;;;;;4.75;4.40;;;4.20;90.50;;;;;;5052754;28;20527;-76
2023/03/29 02:21:52;;;;;;;6.43;5.95;;;4.20;90.70;;;;;;5057917;28;20461;-76
2023/03/29 02:24:41;;;;;;;4.93;4.57;;;4.20;89.70;;;;;;5052056;28;20039;-76
2023/03/29 02:27:07;;;;;;;5.35;5.05;;;4.10;90.10;;;;;;5053003;28;20028;-76
2023/03/29 02:29:32;;;;;;;29.65;27.50;;;4.20;88.10;;;;;;5059476;28;20025;-75
2023/03/29 02:32:19;;;;;;;41.15;35.78;;;4.40;86.10;;;;;;5055880;28;20123;-76
2023/03/29 02:34:57;;;;;;;31.60;29.08;;;4.80;83.70;;;;;;5053320;28;20060;-73
2023/03/29 02:37:28;;;;;;;11.70;10.90;;;4.80;84.50;;;;;;5056893;28;20383;-75
2023/03/29 02:39:58;;;;;;;4.43;4.13;;;4.70;88.10;;;;;;5063594;28;20045;-76
2023/03/29 02:42:25;;;;;;;6.78;6.30;;;4.70;87.90;;;;;;5053836;28;20043;-75
2023/03/29 02:44:56;;;;;;;4.03;3.83;;;4.60;89.70;;;;;;5049823;28;20029;-76
2023/03/29 02:47:25;;;;;;;;;;;4.60;89.40;;;;;;5051297;28;20033;-76
2023/03/29 02:49:51;;;;;;;4.22;4.03;;;4.50;90.00;;;;;;5057302;28;19917;-76
2023/03/29 02:52:22;;;;;;;4.93;4.63;;;4.40;90.30;;;;;;5038138;28;20098;-76
2023/03/29 02:54:51;;;;;;;4.28;4.07;;;4.40;90.60;;;;;;5056369;28;20112;-76
2023/03/29 02:57:17;;;;;;;4.45;4.10;;;4.30;90.40;;;;;;5052959;28;20132;-75
2023/03/29 02:59:43;;;;;;;4.20;4.00;;;4.40;90.40;;;;;;5060033;28;20103;-75
2023/03/29 03:02:10;;;;;;;4.50;4.20;;;4.40;90.90;;;;;;5046124;28;20040;-76
2023/03/29 03:04:36;;;;;;;4.35;4.05;;;4.30;90.90;;;;;;5054751;28;20058;-76
2023/03/29 03:07:05;;;;;;;5.07;4.68;;;4.30;91.10;;;;;;5053018;28;20068;-76
2023/03/29 03:09:31;;;;;;;4.93;4.47;;;4.40;90.60;;;;;;5039362;28;20078;-76
2023/03/29 03:11:57;;;;;;;4.30;4.00;;;4.40;90.10;;;;;;5052342;28;20029;-76
2023/03/29 03:14:22;;;;;;;10.02;9.48;;;4.40;90.20;;;;;;5053314;28;20040;-76
2023/03/29 03:16:48;;;;;;;12.75;12.07;;;4.40;88.60;;;;;;5053648;28;20036;-75
2023/03/29 03:19:14;;;;;;;4.57;4.28;;;4.40;89.70;;;;;;5057389;28;20028;-75
2023/03/29 03:21:40;;;;;;;4.10;3.90;;;4.50;89.20;;;;;;5051764;28;20052;-76
2023/03/29 03:24:06;;;;;;;6.07;5.78;;;4.50;88.90;;;;;;5056799;28;20109;-76
2023/03/29 03:26:34;;;;;;;4.50;4.20;;;4.50;87.60;;;;;;5053059;28;20112;-75
2023/03/29 03:29:00;;;;;;;4.47;4.28;;;4.50;86.80;;;;;;5055441;28;20402;-76
2023/03/29 03:31:27;;;;;;;4.35;4.15;;;4.60;86.40;;;;;;5054133;28;20037;-76
2023/03/29 03:33:53;;;;;;;6.03;5.72;;;4.60;86.30;;;;;;5054353;28;20049;-76
2023/03/29 03:36:25;;;;;;;4.60;4.30;;;4.60;86.00;;;;;;5055887;28;20025;-77
2023/03/29 03:38:51;;;;;;;108.43;100.90;;;4.60;85.80;;;;;;5051559;28;20049;-76
2023/03/29 03:41:17;;;;;;;7.00;6.60;;;4.70;84.80;;;;;;5056806;28;20021;-76
2023/03/29 03:43:47;;;;;;;6.32;6.03;;;4.80;83.70;;;;;;5051354;28;20040;-76
2023/03/29 03:46:14;;;;;;;6.57;6.27;;;4.90;82.80;;;;;;5056821;28;20035;-75
2023/03/29 03:48:39;;;;;;;4.22;3.92;;;4.90;82.40;;;;;;5051423;28;20271;-75
2023/03/29 03:51:05;;;;;;;4.65;4.28;;;4.90;82.30;;;;;;5055425;28;20033;-76
2023/03/29 03:53:32;;;;;;;4.63;4.40;;;5.00;81.80;;;;;;5050692;28;20032;-76
2023/03/29 03:56:00;;;;;;;4.28;3.97;;;5.00;81.40;;;;;;5050259;28;20025;-76
2023/03/29 03:58:27;;;;;;;4.05;3.83;;;4.90;82.00;;;;;;5047077;28;20017;-74
2023/03/29 04:00:53;;;;;;;4.65;4.22;;;4.80;82.80;;;;;;5057892;28;20044;-77
2023/03/29 04:03:19;;;;;;;4.10;3.90;;;4.80;83.00;;;;;;5053205;28;20516;-76
2023/03/29 04:05:46;;;;;;;3.90;3.70;;;4.90;83.00;;;;;;5052891;28;20068;-76
2023/03/29 04:08:12;;;;;;;7.07;6.78;;;4.90;81.90;;;;;;5047518;28;20037;-77
2023/03/29 04:10:38;;;;;;;4.10;3.90;;;5.10;80.50;;;;;;5047686;28;20086;-76
2023/03/29 04:13:04;;;;;;;4.18;3.88;;;5.10;80.30;;;;;;5045902;28;20390;-76
2023/03/29 04:15:31;;;;;;;4.40;4.18;;;5.10;79.90;;;;;;5046020;28;20033;-76
2023/03/29 04:17:58;;;;;;;4.20;3.90;;;5.10;80.00;;;;;;5044121;28;20040;-78
2023/03/29 04:20:25;;;;;;;4.15;3.95;;;5.20;79.10;;;;;;5040552;28;20040;-78
2023/03/29 04:22:51;;;;;;;3.97;3.78;;;5.20;79.90;;;;;;5043763;28;20089;-75
2023/03/29 04:25:17;;;;;;;4.22;3.92;;;5.20;80.00;;;;;;5047809;28;20037;-75
2023/03/29 04:27:43;;;;;;;60.25;28.70;;;5.20;79.80;;;;;;5047958;28;20061;-76
2023/03/29 04:30:09;;;;;;;4.03;3.83;;;5.10;79.40;;;;;;5054937;28;20139;-76
2023/03/29 04:32:35;;;;;;;12.63;11.90;;;5.10;80.50;;;;;;5042291;28;20033;-75
2023/03/29 04:35:03;;;;;;;6.07;5.68;;;5.20;80.10;;;;;;5052202;28;20021;-77
2023/03/29 04:37:30;;;;;;;3.92;3.72;;;5.20;79.20;;;;;;5047233;28;20056;-79
2023/03/29 04:39:59;;;;;;;3.90;3.70;;;5.20;79.30;;;;;;5054536;28;20527;-80
2023/03/29 04:42:25;;;;;;;3.58;3.38;;;5.30;78.80;;;;;;5047212;28;20106;-78
2023/03/29 04:44:52;;;;;;;4.05;3.85;;;5.30;79.40;;;;;;5046142;28;20029;-79
2023/03/29 04:47:18;;;;;;;3.70;3.50;;;5.20;79.20;;;;;;5043257;28;20087;-79
2023/03/29 04:49:44;;;;;;;4.20;4.00;;;5.30;79.80;;;;;;5043488;28;20129;-79
2023/03/29 04:52:10;;;;;;;4.22;4.03;;;5.30;79.20;;;;;;5048401;28;20037;-77
2023/03/29 04:54:36;;;;;;;12.57;12.02;;;5.30;79.90;;;;;;5041327;28;20028;-78
2023/03/29 04:57:03;;;;;;;6.78;6.45;;;5.40;79.10;;;;;;5046697;28;20028;-76
2023/03/29 04:59:28;;;;;;;4.15;3.85;;;5.50;78.30;;;;;;5036978;28;20029;-76
2023/03/29 05:01:54;;;;;;;4.68;4.47;;;5.60;77.90;;;;;;5050441;28;20508;-77
2023/03/29 05:04:20;;;;;;;9.10;8.65;;;5.60;78.20;;;;;;5052225;28;20082;-78
2023/03/29 05:06:46;;;;;;;3.90;3.70;;;5.70;78.50;;;;;;5049305;28;20120;-81
2023/03/29 05:09:11;;;;;;;13.40;12.55;;;5.60;78.20;;;;;;5053103;28;20032;-78
2023/03/29 05:11:37;;;;;;;3.80;3.60;;;5.70;78.30;;;;;;5037725;28;20395;-79
2023/03/29 05:14:06;;;;;;;4.00;3.80;;;5.70;79.30;;;;;;5053896;28;20025;-82
2023/03/29 05:16:33;;;;;;;11.35;10.80;;;5.70;78.40;;;;;;5039530;28;20029;-78
2023/03/29 05:18:59;;;;;;;3.88;3.67;;;5.70;78.70;;;;;;5042899;28;20104;-80
2023/03/29 05:21:27;;;;;;;6.35;6.05;;;5.70;78.80;;;;;;5052199;28;20463;-79
2023/03/29 05:23:53;;;;;;;3.97;3.67;;;5.80;78.50;;;;;;5054773;28;20078;-76
2023/03/29 05:26:20;;;;;;;4.25;3.95;;;5.80;79.20;;;;;;5050520;28;20059;-77
2023/03/29 05:28:49;;;;;;;52.58;49.25;;;5.70;79.80;;;;;;5054272;28;20040;-79
2023/03/29 05:31:16;;;;;;;3.67;3.50;;;5.70;79.70;;;;;;5049611;28;20065;-82
2023/03/29 05:33:42;;;;;;;5.38;5.07;;;5.70;80.40;;;;;;5053851;28;20110;-80
2023/03/29 05:36:12;;;;;;;4.75;4.45;;;5.70;80.40;;;;;;5055416;28;20017;-77
2023/03/29 05:38:39;;;;;;;4.22;3.83;;;5.60;80.40;;;;;;5047633;28;20037;-80
2023/03/29 05:41:05;;;;;;;5.03;4.68;;;5.60;80.50;;;;;;5052013;28;20156;-84
2023/03/29 05:43:31;;;;;;;3.60;3.40;;;5.60;81.10;;;;;;5058635;28;20032;-79
2023/03/29 05:45:58;;;;;;;4.13;3.83;;;5.70;81.40;;;;;;5051388;28;20041;-79
2023/03/29 05:48:24;;;;;;;4.45;4.25;;;5.70;81.30;;;;;;5053849;28;20037;-77
2023/03/29 05:50:52;;;;;;;3.90;3.70;;;5.80;81.80;;;;;;5048990;28;20116;-77
2023/03/29 05:53:18;;;;;;;3.78;3.58;;;5.80;81.70;;;;;;5055584;28;20034;-81
2023/03/29 05:55:45;;;;;;;3.80;3.60;;;5.80;82.00;;;;;;5053434;28;20075;-78
2023/03/29 05:58:12;;;;;;;3.60;3.40;;;5.90;81.90;;;;;;5053842;28;20020;-77
2023/03/29 06:00:38;;;;;;;3.92;3.72;;;6.00;82.60;;;;;;5054927;28;20022;-78
2023/03/29 06:03:06;;;;;;;3.92;3.63;;;6.00;82.00;;;;;;5055836;28;20577;-77
2023/03/29 06:05:33;;;;;;;4.18;3.50;;;6.10;81.30;;;;;;5056438;28;20111;-78
2023/03/29 06:08:00;;;;;;;4.00;3.80;;;6.10;81.30;;;;;;5054220;28;20036;-79
2023/03/29 06:10:26;;;;;;;3.80;3.60;;;6.20;81.50;;;;;;5050153;28;20060;-80
2023/03/29 06:12:52;;;;;;;4.15;3.85;;;6.30;82.20;;;;;;5052134;28;20044;-77
2023/03/29 06:15:18;;;;;;;4.03;3.72;;;6.30;81.60;;;;;;5051331;28;20041;-78
2023/03/29 06:17:44;;;;;;;4.00;3.80;;;6.30;82.00;;;;;;5050812;28;20039;-81
2023/03/29 06:20:11;;;;;;;4.05;3.85;;;6.30;81.20;;;;;;5055502;28;20029;-80
2023/03/29 06:22:37;;;;;;;3.92;3.72;;;6.20;81.70;;;;;;5058979;28;20082;-77
2023/03/29 06:25:04;;;;;;;3.60;3.40;;;6.20;81.70;;;;;;5036904;28;20499;-77
2023/03/29 06:27:31;;;;;;;3.78;3.58;;;6.20;82.30;;;;;;5059276;28;20041;-76
2023/03/29 06:29:58;;;;;;;4.43;4.22;;;6.30;82.70;;;;;;5056529;28;20021;-80
2023/03/29 06:32:24;;;;;;;3.92;3.65;;;6.40;82.30;;;;;;5056517;28;20489;-78
2023/03/29 06:34:50;;;;;;;3.53;3.33;;;6.50;82.50;;;;;;5047983;28;20037;-76
2023/03/29 06:37:16;;;;;;;4.13;3.75;;;6.60;81.60;;;;;;5037119;28;20028;-79
2023/03/29 06:39:42;;;;;;;3.88;3.60;;;6.70;81.60;;;;;;5054043;28;20078;-77
2023/03/29 06:42:09;;;;;;;4.32;4.03;;;6.60;82.20;;;;;;5059493;28;20035;-76
2023/03/29 06:44:35;;;;;;;4.00;3.70;;;6.60;81.60;;;;;;5059301;28;20115;-77
2023/03/29 06:47:00;;;;;;;4.10;3.90;;;6.70;81.30;;;;;;5056960;28;20067;-77
2023/03/29 06:49:26;;;;;;;4.35;4.15;;;6.80;80.90;;;;;;5053291;28;20064;-79
2023/03/29 06:51:52;;;;;;;17.40;15.98;;;6.80;80.30;;;;;;5052645;28;20021;-76
2023/03/29 06:54:19;;;;;;;4.05;3.85;;;6.80;80.40;;;;;;5050394;28;20021;-77
2023/03/29 06:56:46;;;;;;;4.78;4.53;;;6.70;80.70;;;;;;5046903;28;20034;-76
2023/03/29 06:59:12;;;;;;;36.58;33.72;;;6.90;82.20;;;;;;5050992;28;20040;-76
2023/03/29 07:01:38;;;;;;;4.43;4.22;;;6.70;80.10;;;;;;5051604;28;20025;-76
2023/03/29 07:04:07;;;;;;;4.70;4.40;;;6.80;80.80;;;;;;5051199;28;20035;-79
2023/03/29 07:06:35;;;;;;;13.70;12.80;;;6.70;80.70;;;;;;5048606;28;20565;-76
2023/03/29 07:09:01;;;;;;;6.35;6.05;;;6.60;80.90;;;;;;5051819;28;20033;-75
2023/03/29 07:11:28;;;;;;;4.30;4.00;;;6.80;80.90;;;;;;5046374;28;20037;-79
2023/03/29 07:13:55;;;;;;;3.70;3.50;;;6.90;82.10;;;;;;5038647;28;20033;-80
2023/03/29 07:16:20;;;;;;;4.40;4.00;;;6.90;83.90;;;;;;5047711;28;20372;-80
2023/03/29 07:18:46;;;;;;;4.55;4.25;;;7.00;85.00;;;;;;5052255;28;20030;-79
2023/03/29 07:21:12;;;;;;;3.95;3.75;;;7.10;86.60;;;;;;5048532;28;20428;-76
2023/03/29 07:23:38;;;;;;;4.15;3.95;;;7.00;85.40;;;;;;5050779;28;20032;-77
2023/03/29 07:26:06;;;;;;;3.78;3.58;;;7.00;88.10;;;;;;5053180;28;20029;-82
2023/03/29 07:28:32;;;;;;;6.35;6.05;;;7.10;87.60;;;;;;5052438;28;20032;-78
2023/03/29 07:31:25;;;;;;;4.30;4.10;;;7.00;85.00;;;;;;5057118;28;20029;-79
2023/03/29 07:33:52;;;;;;;7.00;6.70;;;7.00;87.40;;;;;;5054801;28;20129;-80
2023/03/29 07:36:18;;;;;;;3.83;3.63;;;7.20;84.50;;;;;;5048726;28;20491;-80
2023/03/29 07:38:44;;;;;;;6.53;5.80;;;7.30;85.40;;;;;;5060864;28;20059;-84
2023/03/29 07:41:10;;;;;;;3.65;3.45;;;7.30;84.20;;;;;;5057460;28;20033;-78
2023/03/29 07:43:35;;;;;;;4.13;3.83;;;7.40;84.00;;;;;;5059578;28;20055;-83
2023/03/29 07:46:03;;;;;;;3.95;3.75;;;7.40;83.00;;;;;;5039381;28;20573;-79
2023/03/29 07:48:29;;;;;;;4.22;4.03;;;7.40;81.20;;;;;;5054065;28;20029;-82
2023/03/29 07:50:55;;;;;;;3.90;3.60;;;7.30;81.10;;;;;;5055175;28;20160;-81
2023/03/29 07:53:21;;;;;;;5.63;5.20;;;7.30;81.50;;;;;;5039140;28;20116;-80
2023/03/29 07:55:48;;;;;;;3.67;3.38;;;7.30;81.40;;;;;;5056143;28;20032;-82
2023/03/29 07:58:15;;;;;;;3.58;3.38;;;7.60;80.60;;;;;;5054283;28;20423;-82
2023/03/29 08:00:42;;;;;;;4.15;3.85;;;7.70;79.80;;;;;;5050271;28;20387;-79
2023/03/29 08:03:11;;;;;;;4.53;4.22;;;7.80;82.40;;;;;;5042800;28;20057;-82
2023/03/29 08:05:37;;;;;;;4.18;3.97;;;7.70;83.20;;;;;;5052168;28;20068;-84
2023/03/29 08:08:03;;;;;;;13.27;12.65;;;7.60;86.30;;;;;;5051983;28;20032;-86
2023/03/29 08:10:29;;;;;;;3.85;3.65;;;7.60;83.20;;;;;;5047924;28;20029;-80
2023/03/29 08:12:56;;;;;;;19.23;17.65;;;7.50;83.60;;;;;;5042649;28;20495;-84
2023/03/29 08:15:22;;;;;;;4.10;3.90;;;7.40;82.10;;;;;;5053655;28;20027;-78
2023/03/29 08:17:48;;;;;;;13.00;12.40;;;7.40;84.30;;;;;;5046139;28;20029;-82
2023/03/29 08:20:16;;;;;;;3.80;3.50;;;7.40;82.80;;;;;;5053900;28;20398;-79
2023/03/29 08:22:42;;;;;;;5.82;5.43;;;7.50;85.50;;;;;;5056038;28;20033;-80
2023/03/29 08:25:09;;;;;;;4.20;3.90;;;7.60;80.90;;;;;;5050336;28;20078;-83
2023/03/29 08:27:36;;;;;;;6.55;6.22;;;7.70;81.60;;;;;;5052578;28;20029;-83
2023/03/29 08:30:04;;;;;;;4.70;4.40;;;7.80;77.10;;;;;;5051838;28;20032;-81
2023/03/29 08:32:30;;;;;;;4.28;3.97;;;7.90;75.60;;;;;;5059027;28;20041;-86
2023/03/29 08:34:56;;;;;;;10.35;9.85;;;8.10;75.80;;;;;;5048172;28;20509;-81
2023/03/29 08:37:23;;;;;;;4.00;3.80;;;8.10;74.80;;;;;;5036794;28;20034;-81
2023/03/29 08:39:49;;;;;;;4.10;3.80;;;8.20;73.60;;;;;;5056960;28;20120;-78
2023/03/29 08:42:31;;;;;;;4.20;3.95;;;8.40;74.50;;;;;;5065581;28;20119;-84
2023/03/29 08:45:25;;;;;;;11.27;10.48;;;8.50;71.90;;;;;;5061161;28;20024;-81
2023/03/29 08:48:00;;;;;;;3.95;3.75;;;8.40;72.00;;;;;;5058367;28;20025;-80
2023/03/29 08:50:51;;;;;;;4.07;3.88;;;8.50;71.90;;;;;;5053481;28;20103;-82
2023/03/29 08:53:43;;;;;;;4.65;4.45;;;8.60;71.80;;;;;;5052418;28;20147;-82
2023/03/29 08:56:21;;;;;;;5.65;5.25;;;8.70;70.90;;;;;;5057038;28;20018;-80
2023/03/29 08:58:49;;;;;;;4.38;3.92;;;8.80;70.40;;;;;;5055946;28;20025;-82
2023/03/29 09:01:15;;;;;;;8.05;7.72;;;9.10;70.90;;;;;;5060176;28;20475;-81
2023/03/29 09:03:54;;;;;;;4.45;4.25;;;9.10;69.50;;;;;;5062845;28;20037;-77
2023/03/29 09:06:20;;;;;;;4.45;4.15;;;9.30;71.10;;;;;;5063504;28;20048;-79
2023/03/29 09:08:48;;;;;;;4.25;3.90;;;9.20;69.70;;;;;;5045293;28;20059;-82
2023/03/29 09:11:51;;;;;;;4.20;3.83;;;9.40;70.40;;;;;;5054875;28;20459;-80
2023/03/29 09:14:38;;;;;;;4.28;3.88;;;9.60;70.80;;;;;;5041929;28;20037;-80
2023/03/29 09:17:29;;;;;;;4.60;4.30;;;9.50;68.70;;;;;;5053248;28;20082;-83
2023/03/29 09:20:29;;;;;;;4.30;4.10;;;9.60;68.40;;;;;;5044713;28;20495;-82
2023/03/29 09:23:18;;;;;;;6.68;4.30;;;9.50;68.10;;;;;;5057099;28;20021;-82
2023/03/29 09:25:44;;;;;;;3.93;3.70;;;9.70;69.10;;;;;;5052545;28;20030;-82
2023/03/29 09:28:18;;;;;;;4.13;3.92;;;9.90;67.90;;;;;;5061994;28;20025;-83
2023/03/29 09:30:58;;;;;;;6.90;6.47;;;10.20;67.70;;;;;;5059453;28;20547;-81
2023/03/29 09:33:48;;;;;;;3.78;3.47;;;10.10;66.90;;;;;;5062932;28;20110;-85
2023/03/29 09:36:21;;;;;;;4.00;3.80;;;10.40;66.50;;;;;;5052429;28;20037;-83
2023/03/29 09:38:52;;;;;;;4.07;3.80;;;10.90;68.30;;;;;;5058519;28;20045;-80
2023/03/29 09:41:37;;;;;;;4.20;3.90;;;11.20;64.60;;;;;;5058057;28;20431;-79
2023/03/29 09:44:13;;;;;;;4.00;3.80;;;11.30;65.20;;;;;;5047028;28;20503;-80
2023/03/29 09:46:56;;;;;;;4.07;3.88;;;11.30;64.40;;;;;;5051241;28;20347;-81
2023/03/29 09:49:28;;;;;;;4.32;3.92;;;11.20;64.50;;;;;;5044949;28;20032;-80
2023/03/29 09:52:00;;;;;;;4.03;3.83;;;11.10;63.60;;;;;;5049786;28;20045;-79
2023/03/29 09:54:32;;;;;;;4.53;4.22;;;11.20;63.80;;;;;;5052578;28;20060;-84
2023/03/29 09:56:58;;;;;;;4.30;4.10;;;11.70;64.10;;;;;;5040637;28;20029;-80
2023/03/29 09:59:24;;;;;;;4.63;4.32;;;11.80;60.60;;;;;;5060043;28;20025;-82
2023/03/29 10:01:51;;;;;;;5.00;4.70;;;11.50;61.60;;;;;;5063473;28;20041;-81
2023/03/29 10:04:17;;;;;;;4.35;4.05;;;11.50;61.40;;;;;;5046794;28;20166;-79
2023/03/29 10:06:49;;;;;;;4.07;3.88;;;11.60;62.60;;;;;;5056111;28;20123;-81
2023/03/29 10:09:25;;;;;;;4.30;4.00;;;11.50;61.40;;;;;;5058280;28;20505;-80
2023/03/29 10:11:55;;;;;;;4.28;3.95;;;11.90;61.90;;;;;;5048382;28;20033;-79
2023/03/29 10:14:32;;;;;;;;;;;11.90;61.30;;;;;;5042842;28;20526;-80
2023/03/29 10:16:58;;;;;;;4.07;3.88;;;11.80;61.10;;;;;;5057602;28;19920;-78
2023/03/29 10:19:35;;;;;;;5.13;4.72;;;12.20;63.40;;;;;;5056814;28;20024;-77
2023/03/29 10:22:13;;;;;;;5.43;5.05;;;11.90;59.60;;;;;;5052098;28;20059;-80
2023/03/29 10:24:38;;;;;;;4.35;4.00;;;12.00;61.50;;;;;;5052277;28;20029;-78
2023/03/29 10:27:09;;;;;;;5.00;4.75;;;12.20;60.30;;;;;;5052973;28;20033;-82
2023/03/29 10:29:41;;;;;;;23.52;22.23;;;12.10;60.40;;;;;;5057237;28;20529;-81
2023/03/29 10:32:24;;;;;;;4.40;4.10;;;11.90;60.00;;;;;;5059781;28;20486;-79
2023/03/29 10:34:52;;;;;;;4.45;4.20;;;12.30;58.80;;;;;;5054157;28;20573;-80
2023/03/29 10:37:20;;;;;;;6.70;6.20;;;12.20;59.50;;;;;;5060256;28;20044;-77
2023/03/29 10:39:50;;;;;;;9.77;9.18;;;12.00;60.00;;;;;;5060881;28;20043;-79
2023/03/29 10:42:18;;;;;;;4.70;4.30;;;12.00;59.80;;;;;;5060214;28;20037;-80
2023/03/29 10:44:56;;;;;;;23.30;21.23;;;12.90;59.80;;;;;;5050819;28;20513;-79
2023/03/29 10:47:24;;;;;;;4.85;4.55;;;12.60;55.80;;;;;;5050644;28;20054;-76
2023/03/29 10:49:53;;;;;;;4.03;3.80;;;12.70;58.60;;;;;;5061759;28;20071;-84
2023/03/29 10:52:20;;;;;;;4.25;3.95;;;13.10;58.30;;;;;;5058031;28;20029;-82
2023/03/29 10:54:46;;;;;;;4.10;3.90;;;13.40;57.10;;;;;;5056731;28;20086;-82
2023/03/29 10:57:32;;;;;;;4.22;4.03;;;13.60;56.70;;;;;;5051352;28;20032;-76
2023/03/29 11:00:17;;;;;;;4.20;3.78;;;13.60;55.40;;;;;;5061343;28;20102;-81
2023/03/29 11:03:04;;;;;;;4.45;4.15;;;13.20;55.10;;;;;;5047078;28;20033;-86
2023/03/29 11:05:37;;;;;;;4.82;4.53;;;13.50;57.40;;;;;;5056477;28;20025;-80
2023/03/29 11:08:21;;;;;;;22.00;20.90;;;13.80;53.70;;;;;;5049647;28;20074;-78
2023/03/29 11:10:52;;;;;;;4.10;3.88;;;13.50;55.90;;;;;;5050307;28;20474;-81
2023/03/29 11:13:36;;;;;;;6.32;4.03;;;14.00;54.60;;;;;;5047866;28;20029;-77
2023/03/29 11:16:17;;;;;;;4.10;3.90;;;13.80;55.30;;;;;;5054091;28;20036;-82
2023/03/29 11:19:36;;;;;;;7.43;6.93;;;14.00;54.60;;;;;;5053554;28;20063;-80
2023/03/29 11:22:23;;;;;;;6.18;5.78;;;13.90;53.80;;;;;;5028456;28;20041;-81
2023/03/29 11:25:06;;;;;;;4.57;4.30;;;14.20;53.50;;;;;;5059248;28;20036;-79
2023/03/29 11:28:05;;;;;;;4.35;3.97;;;13.90;50.90;;;;;;5052424;28;20028;-82
2023/03/29 11:30:59;;;;;;;4.40;4.10;;;13.80;50.50;;;;;;5052337;28;20037;-80
2023/03/29 11:33:34;;;;;;;4.05;3.85;;;13.80;50.20;;;;;;5048614;28;20127;-80
2023/03/29 11:36:28;;;;;;;4.32;4.03;;;13.90;53.20;;;;;;5048722;28;20083;-79
2023/03/29 11:39:10;;;;;;;4.45;3.70;;;13.90;50.40;;;;;;5048678;28;20455;-79
2023/03/29 11:41:43;;;;;;;4.75;4.00;;;14.20;50.20;;;;;;5045723;28;20047;-80
2023/03/29 11:44:09;;;;;;;10.73;10.13;;;14.10;48.20;;;;;;5050827;28;20029;-81
2023/03/29 11:46:36;;;;;;;7.60;7.10;;;14.00;47.40;;;;;;5048045;28;20365;-78
2023/03/29 11:49:13;;;;;;;4.00;3.78;;;13.90;46.40;;;;;;5053096;28;20029;-78
2023/03/29 11:52:09;;;;;;;4.43;4.03;;;14.10;47.00;;;;;;5041324;28;20077;-78
2023/03/29 11:54:53;;;;;;;4.22;4.03;;;14.20;45.80;;;;;;5049817;28;20033;-78
2023/03/29 11:57:40;;;;;;;4.03;3.75;;;14.10;46.80;;;;;;5043406;28;20083;-81
2023/03/29 12:00:13;;;;;;;4.00;3.70;;;13.80;45.70;;;;;;5054329;28;20032;-83
2023/03/29 12:03:05;;;;;;;3.90;3.60;;;13.80;47.50;;;;;;5046979;28;20116;-79
2023/03/29 12:05:40;;;;;;;5.43;5.22;;;13.60;48.90;;;;;;5046886;28;20128;-79
2023/03/29 12:08:13;;;;;;;3.80;3.60;;;13.50;45.30;;;;;;5045801;28;20094;-79
2023/03/29 12:10:48;;;;;;;6.75;3.95;;;13.40;48.30;;;;;;5048068;28;20039;-79
2023/03/29 12:13:19;;;;;;;4.40;4.10;;;13.40;47.00;;;;;;5045884;28;20024;-82
2023/03/29 12:15:48;;;;;;;;;;;13.80;46.80;;;;;;5050130;28;20048;-79
2023/03/29 12:18:38;;;;;;;4.28;3.90;;;13.80;46.70;;;;;;5042932;28;19908;-81
2023/03/29 12:21:08;;;;;;;;;;;14.20;48.70;;;;;;5048671;28;20104;-82
2023/03/29 12:23:33;;;;;;;4.20;4.00;;;14.70;49.00;;;;;;5048665;28;19937;-81
2023/03/29 12:26:26;;;;;;;4.25;4.05;;;14.70;49.90;;;;;;5054617;28;20067;-82
2023/03/29 12:29:07;;;;;;;4.30;4.10;;;14.80;51.20;;;;;;5057096;28;20041;-79
2023/03/29 12:31:44;;;;;;;4.03;3.83;;;15.30;50.00;;;;;;5052324;28;20090;-80
2023/03/29 12:34:09;;;;;;;4.43;4.00;;;15.20;48.70;;;;;;5055957;28;20051;-81
2023/03/29 12:37:22;;;;;;;4.65;4.13;;;15.00;51.10;;;;;;5053028;28;20475;-82
2023/03/29 12:39:50;;;;;;;4.85;4.50;;;15.70;48.70;;;;;;5051812;28;20076;-80
2023/03/29 12:42:18;;;;;;;4.55;4.15;;;15.60;45.70;;;;;;5052442;28;20029;-79
2023/03/29 12:44:58;;;;;;;4.05;3.85;;;17.20;47.40;;;;;;5048045;28;20041;-79
2023/03/29 12:47:26;;;;;;;5.37;4.10;;;17.50;44.50;;;;;;5050260;28;20040;-79
2023/03/29 12:49:56;;;;;;;3.70;3.50;;;16.40;45.80;;;;;;5049020;28;20109;-78
2023/03/29 12:52:32;;;;;;;4.07;3.80;;;15.80;47.30;;;;;;5051594;28;20033;-78
2023/03/29 12:55:01;;;;;;;4.20;3.80;;;15.10;48.40;;;;;;5047850;28;20279;-79
2023/03/29 12:57:46;;;;;;;4.03;3.78;;;14.30;50.40;;;;;;5050789;28;20502;-81
2023/03/29 13:00:41;;;;;;;4.90;4.60;;;14.00;53.50;;;;;;5039053;28;20028;-82
2023/03/29 13:03:26;;;;;;;4.97;3.90;;;13.40;61.70;;;;;;5047429;28;20434;-82
2023/03/29 13:06:03;;;;;;;4.25;3.95;;;13.00;67.10;;;;;;5044760;28;20029;-83
2023/03/29 13:08:42;;;;;;;4.05;3.85;;;12.80;70.40;;;;;;5046928;28;20115;-79
2023/03/29 13:11:28;;;;;;;4.05;3.85;;;12.80;65.00;;;;;;5045266;28;20115;-81
2023/03/29 13:13:56;;;;;;;4.57;4.07;;;13.10;68.30;;;;;;5047509;28;20044;-80
2023/03/29 13:16:34;;;;;;;5.97;5.55;;;13.70;70.60;;;;;;5046200;28;20108;-80